sensor_id;sensor_type;location;lat;lon;timestamp;P1;durP1;ratioP1;P2;durP2;ratioP2
13832;SDS011;6987;19.472;-99.276;2023-09-18T00:00:21;11.35;;;10.00;;
13832;SDS011;6987;19.472;-99.276;2023-09-18T00:02:51;11.13;;;10.02;;
13832;SDS011;6987;19.472;-99.276;2023-09-18T00:05:20;9.98;;;9.18;;
13832;SDS011;6987;19.472;-99.276;2023-09-18T00:07:50;11.07;;;10.07;;
13832;SDS011;6987;19.472;-99.276;2023-09-18T00:10:20;11.55;;;10.32;;
13832;SDS011;6987;19.472;-99.276;2023-09-18T00:12:52;13.10;;;10.23;;
13832;SDS011;6987;19.472;-99.276;2023-09-18T00:15:21;11.15;;;10.00;;
13832;SDS011;6987;19.472;-99.276;2023-09-18T00:17:51;11.40;;;10.40;;
13832;SDS011;6987;19.472;-99.276;2023-09-18T00:20:21;11.13;;;10.10;;
13832;SDS011;6987;19.472;-99.276;2023-09-18T00:22:52;11.40;;;10.30;;
13832;SDS011;6987;19.472;-99.276;2023-09-18T00:25:21;12.20;;;10.98;;
13832;SDS011;6987;19.472;-99.276;2023-09-18T00:27:53;11.00;;;9.98;;
13832;SDS011;6987;19.472;-99.276;2023-09-18T00:30:22;10.77;;;9.77;;
13832;SDS011;6987;19.472;-99.276;2023-09-18T00:32:52;11.85;;;10.85;;
13832;SDS011;6987;19.472;-99.276;2023-09-18T00:35:21;11.60;;;10.57;;
13832;SDS011;6987;19.472;-99.276;2023-09-18T00:37:51;12.82;;;10.80;;
13832;SDS011;6987;19.472;-99.276;2023-09-18T00:40:21;11.07;;;10.00;;
13832;SDS011;6987;19.472;-99.276;2023-09-18T00:42:52;11.88;;;10.60;;
13832;SDS011;6987;19.472;-99.276;2023-09-18T00:45:22;11.73;;;10.57;;
13832;SDS011;6987;19.472;-99.276;2023-09-18T00:47:51;11.90;;;10.93;;
13832;SDS011;6987;19.472;-99.276;2023-09-18T00:50:21;12.57;;;11.32;;
13832;SDS011;6987;19.472;-99.276;2023-09-18T00:52:52;11.30;;;10.20;;
13832;SDS011;6987;19.472;-99.276;2023-09-18T00:55:22;12.70;;;11.38;;
13832;SDS011;6987;19.472;-99.276;2023-09-18T00:57:53;12.57;;;11.50;;
13832;SDS011;6987;19.472;-99.276;2023-09-18T01:00:23;15.48;;;13.88;;
13832;SDS011;6987;19.472;-99.276;2023-09-18T01:02:53;14.93;;;13.52;;
13832;SDS011;6987;19.472;-99.276;2023-09-18T01:05:22;15.85;;;14.25;;
13832;SDS011;6987;19.472;-99.276;2023-09-18T01:07:52;18.02;;;15.82;;
13832;SDS011;6987;19.472;-99.276;2023-09-18T01:10:21;17.08;;;15.35;;
13832;SDS011;6987;19.472;-99.276;2023-09-18T01:13:00;16.20;;;14.55;;
13832;SDS011;6987;19.472;-99.276;2023-09-18T01:15:33;15.88;;;14.57;;
13832;SDS011;6987;19.472;-99.276;2023-09-18T01:18:10;16.20;;;14.25;;
13832;SDS011;6987;19.472;-99.276;2023-09-18T01:20:39;15.27;;;13.70;;
13832;SDS011;6987;19.472;-99.276;2023-09-18T01:23:10;14.85;;;13.48;;
13832;SDS011;6987;19.472;-99.276;2023-09-18T01:25:39;16.55;;;13.68;;
13832;SDS011;6987;19.472;-99.276;2023-09-18T01:28:09;13.52;;;12.15;;
13832;SDS011;6987;19.472;-99.276;2023-09-18T01:30:39;14.98;;;13.57;;
13832;SDS011;6987;19.472;-99.276;2023-09-18T01:33:08;15.32;;;13.82;;
13832;SDS011;6987;19.472;-99.276;2023-09-18T01:35:38;14.18;;;12.93;;
13832;SDS011;6987;19.472;-99.276;2023-09-18T01:38:12;14.48;;;13.05;;
13832;SDS011;6987;19.472;-99.276;2023-09-18T01:40:41;14.43;;;13.00;;
13832;SDS011;6987;19.472;-99.276;2023-09-18T01:43:12;14.65;;;13.15;;
13832;SDS011;6987;19.472;-99.276;2023-09-18T01:45:41;13.50;;;12.40;;
13832;SDS011;6987;19.472;-99.276;2023-09-18T01:48:12;15.27;;;13.68;;
13832;SDS011;6987;19.472;-99.276;2023-09-18T01:50:42;14.57;;;13.10;;
13832;SDS011;6987;19.472;-99.276;2023-09-18T01:53:14;15.23;;;13.65;;
13832;SDS011;6987;19.472;-99.276;2023-09-18T01:55:44;15.05;;;13.52;;
13832;SDS011;6987;19.472;-99.276;2023-09-18T01:58:13;13.82;;;12.55;;
13832;SDS011;6987;19.472;-99.276;2023-09-18T02:00:43;13.45;;;12.20;;
13832;SDS011;6987;19.472;-99.276;2023-09-18T02:03:13;13.27;;;12.02;;
13832;SDS011;6987;19.472;-99.276;2023-09-18T02:05:46;14.43;;;12.95;;
13832;SDS011;6987;19.472;-99.276;2023-09-18T02:08:17;14.23;;;12.80;;
13832;SDS011;6987;19.472;-99.276;2023-09-18T02:10:47;16.88;;;14.25;;
13832;SDS011;6987;19.472;-99.276;2023-09-18T02:13:17;16.98;;;14.35;;
13832;SDS011;6987;19.472;-99.276;2023-09-18T02:15:46;15.63;;;13.57;;
13832;SDS011;6987;19.472;-99.276;2023-09-18T02:18:16;16.05;;;14.45;;
13832;SDS011;6987;19.472;-99.276;2023-09-18T02:20:46;15.23;;;13.73;;
13832;SDS011;6987;19.472;-99.276;2023-09-18T02:23:17;15.50;;;14.10;;
13832;SDS011;6987;19.472;-99.276;2023-09-18T02:25:55;14.27;;;13.07;;
13832;SDS011;6987;19.472;-99.276;2023-09-18T02:28:25;14.20;;;12.80;;
13832;SDS011;6987;19.472;-99.276;2023-09-18T02:30:54;14.80;;;13.43;;
13832;SDS011;6987;19.472;-99.276;2023-09-18T02:33:24;22.55;;;14.10;;
13832;SDS011;6987;19.472;-99.276;2023-09-18T02:35:54;16.60;;;14.35;;
13832;SDS011;6987;19.472;-99.276;2023-09-18T02:38:25;14.70;;;13.20;;
13832;SDS011;6987;19.472;-99.276;2023-09-18T02:40:55;16.00;;;14.15;;
13832;SDS011;6987;19.472;-99.276;2023-09-18T02:43:25;15.82;;;14.32;;
13832;SDS011;6987;19.472;-99.276;2023-09-18T02:45:54;17.67;;;14.55;;
13832;SDS011;6987;19.472;-99.276;2023-09-18T02:48:24;14.88;;;13.32;;
13832;SDS011;6987;19.472;-99.276;2023-09-18T02:50:54;14.35;;;12.98;;
13832;SDS011;6987;19.472;-99.276;2023-09-18T02:53:25;14.70;;;13.27;;
13832;SDS011;6987;19.472;-99.276;2023-09-18T02:55:55;15.52;;;14.18;;
13832;SDS011;6987;19.472;-99.276;2023-09-18T02:58:25;17.63;;;14.35;;
13832;SDS011;6987;19.472;-99.276;2023-09-18T03:00:56;15.40;;;13.95;;
13832;SDS011;6987;19.472;-99.276;2023-09-18T03:03:26;16.38;;;14.25;;
13832;SDS011;6987;19.472;-99.276;2023-09-18T03:06:00;17.05;;;15.32;;
13832;SDS011;6987;19.472;-99.276;2023-09-18T03:08:31;16.98;;;15.27;;
13832;SDS011;6987;19.472;-99.276;2023-09-18T03:11:01;16.55;;;14.90;;
13832;SDS011;6987;19.472;-99.276;2023-09-18T03:13:30;18.27;;;14.52;;
13832;SDS011;6987;19.472;-99.276;2023-09-18T03:16:00;17.52;;;15.70;;
13832;SDS011;6987;19.472;-99.276;2023-09-18T03:18:30;17.08;;;15.27;;
13832;SDS011;6987;19.472;-99.276;2023-09-18T03:20:59;18.30;;;16.60;;
13832;SDS011;6987;19.472;-99.276;2023-09-18T03:23:29;17.02;;;15.38;;
13832;SDS011;6987;19.472;-99.276;2023-09-18T03:25:59;18.83;;;16.92;;
13832;SDS011;6987;19.472;-99.276;2023-09-18T03:28:29;17.58;;;15.93;;
13832;SDS011;6987;19.472;-99.276;2023-09-18T03:30:58;18.83;;;16.70;;
13832;SDS011;6987;19.472;-99.276;2023-09-18T03:33:30;17.52;;;15.77;;
13832;SDS011;6987;19.472;-99.276;2023-09-18T03:35:59;18.42;;;16.45;;
13832;SDS011;6987;19.472;-99.276;2023-09-18T03:38:32;17.65;;;15.88;;
13832;SDS011;6987;19.472;-99.276;2023-09-18T03:41:02;18.00;;;16.27;;
13832;SDS011;6987;19.472;-99.276;2023-09-18T03:43:31;16.45;;;14.90;;
13832;SDS011;6987;19.472;-99.276;2023-09-18T03:46:04;16.70;;;14.93;;
13832;SDS011;6987;19.472;-99.276;2023-09-18T03:48:33;16.10;;;14.65;;
13832;SDS011;6987;19.472;-99.276;2023-09-18T03:51:03;16.98;;;15.20;;
13832;SDS011;6987;19.472;-99.276;2023-09-18T03:53:35;15.77;;;14.27;;
13832;SDS011;6987;19.472;-99.276;2023-09-18T03:56:04;16.02;;;14.43;;
13832;SDS011;6987;19.472;-99.276;2023-09-18T03:58:34;17.30;;;14.23;;
13832;SDS011;6987;19.472;-99.276;2023-09-18T04:01:03;15.75;;;14.25;;
13832;SDS011;6987;19.472;-99.276;2023-09-18T04:03:32;16.23;;;14.68;;
13832;SDS011;6987;19.472;-99.276;2023-09-18T04:06:01;15.82;;;14.23;;
13832;SDS011;6987;19.472;-99.276;2023-09-18T04:08:32;16.90;;;15.30;;
13832;SDS011;6987;19.472;-99.276;2023-09-18T04:11:03;15.52;;;14.00;;
13832;SDS011;6987;19.472;-99.276;2023-09-18T04:13:35;17.23;;;15.20;;
13832;SDS011;6987;19.472;-99.276;2023-09-18T04:16:05;17.15;;;15.45;;
13832;SDS011;6987;19.472;-99.276;2023-09-18T04:18:34;15.25;;;13.80;;
13832;SDS011;6987;19.472;-99.276;2023-09-18T04:21:03;16.88;;;15.18;;
13832;SDS011;6987;19.472;-99.276;2023-09-18T04:23:32;18.23;;;15.82;;
13832;SDS011;6987;19.472;-99.276;2023-09-18T04:26:04;17.83;;;15.68;;
13832;SDS011;6987;19.472;-99.276;2023-09-18T04:28:33;17.38;;;15.48;;
13832;SDS011;6987;19.472;-99.276;2023-09-18T04:31:03;17.00;;;14.93;;
13832;SDS011;6987;19.472;-99.276;2023-09-18T04:33:32;16.95;;;15.25;;
13832;SDS011;6987;19.472;-99.276;2023-09-18T04:36:02;16.08;;;14.48;;
13832;SDS011;6987;19.472;-99.276;2023-09-18T04:38:31;16.92;;;15.20;;
13832;SDS011;6987;19.472;-99.276;2023-09-18T04:41:02;17.52;;;15.25;;
13832;SDS011;6987;19.472;-99.276;2023-09-18T04:43:33;19.10;;;17.13;;
13832;SDS011;6987;19.472;-99.276;2023-09-18T04:46:04;16.60;;;15.00;;
13832;SDS011;6987;19.472;-99.276;2023-09-18T04:48:33;17.75;;;16.00;;
13832;SDS011;6987;19.472;-99.276;2023-09-18T04:51:02;16.33;;;14.40;;
13832;SDS011;6987;19.472;-99.276;2023-09-18T04:53:32;14.45;;;12.90;;
13832;SDS011;6987;19.472;-99.276;2023-09-18T04:56:03;13.18;;;11.75;;
13832;SDS011;6987;19.472;-99.276;2023-09-18T04:58:32;12.75;;;11.48;;
13832;SDS011;6987;19.472;-99.276;2023-09-18T05:01:03;11.23;;;10.32;;
13832;SDS011;6987;19.472;-99.276;2023-09-18T05:03:33;11.57;;;10.57;;
13832;SDS011;6987;19.472;-99.276;2023-09-18T05:06:03;11.57;;;10.50;;
13832;SDS011;6987;19.472;-99.276;2023-09-18T05:08:32;10.27;;;9.23;;
13832;SDS011;6987;19.472;-99.276;2023-09-18T05:11:03;10.15;;;9.25;;
13832;SDS011;6987;19.472;-99.276;2023-09-18T05:13:32;9.35;;;8.52;;
13832;SDS011;6987;19.472;-99.276;2023-09-18T05:16:02;10.52;;;9.52;;
13832;SDS011;6987;19.472;-99.276;2023-09-18T05:18:32;9.32;;;8.43;;
13832;SDS011;6987;19.472;-99.276;2023-09-18T05:21:03;10.43;;;9.50;;
13832;SDS011;6987;19.472;-99.276;2023-09-18T05:23:33;9.95;;;8.93;;
13832;SDS011;6987;19.472;-99.276;2023-09-18T05:26:04;11.13;;;8.93;;
13832;SDS011;6987;19.472;-99.276;2023-09-18T05:28:33;9.27;;;8.38;;
13832;SDS011;6987;19.472;-99.276;2023-09-18T05:31:02;10.23;;;9.20;;
13832;SDS011;6987;19.472;-99.276;2023-09-18T05:33:32;8.80;;;7.95;;
13832;SDS011;6987;19.472;-99.276;2023-09-18T05:36:02;9.15;;;8.35;;
13832;SDS011;6987;19.472;-99.276;2023-09-18T05:38:35;9.30;;;8.40;;
13832;SDS011;6987;19.472;-99.276;2023-09-18T05:41:06;8.05;;;7.35;;
13832;SDS011;6987;19.472;-99.276;2023-09-18T05:43:39;9.52;;;8.57;;
13832;SDS011;6987;19.472;-99.276;2023-09-18T05:46:08;9.65;;;8.77;;
13832;SDS011;6987;19.472;-99.276;2023-09-18T05:48:38;9.63;;;8.63;;
13832;SDS011;6987;19.472;-99.276;2023-09-18T05:51:08;11.43;;;9.68;;
13832;SDS011;6987;19.472;-99.276;2023-09-18T05:53:37;11.27;;;10.35;;
13832;SDS011;6987;19.472;-99.276;2023-09-18T05:56:08;10.32;;;9.32;;
13832;SDS011;6987;19.472;-99.276;2023-09-18T05:58:37;11.48;;;10.27;;
13832;SDS011;6987;19.472;-99.276;2023-09-18T06:01:07;9.60;;;8.68;;
13832;SDS011;6987;19.472;-99.276;2023-09-18T06:03:37;9.80;;;8.93;;
13832;SDS011;6987;19.472;-99.276;2023-09-18T06:06:07;9.02;;;8.20;;
13832;SDS011;6987;19.472;-99.276;2023-09-18T06:08:36;9.70;;;8.75;;
13832;SDS011;6987;19.472;-99.276;2023-09-18T06:11:08;8.93;;;8.13;;
13832;SDS011;6987;19.472;-99.276;2023-09-18T06:13:37;8.80;;;8.00;;
13832;SDS011;6987;19.472;-99.276;2023-09-18T06:16:07;10.57;;;8.15;;
13832;SDS011;6987;19.472;-99.276;2023-09-18T06:18:37;8.07;;;7.38;;
13832;SDS011;6987;19.472;-99.276;2023-09-18T06:21:07;8.98;;;8.23;;
13832;SDS011;6987;19.472;-99.276;2023-09-18T06:23:39;9.30;;;8.40;;
13832;SDS011;6987;19.472;-99.276;2023-09-18T06:26:10;8.73;;;8.00;;
13832;SDS011;6987;19.472;-99.276;2023-09-18T06:28:39;9.43;;;8.63;;
13832;SDS011;6987;19.472;-99.276;2023-09-18T06:31:09;9.18;;;8.27;;
13832;SDS011;6987;19.472;-99.276;2023-09-18T06:33:40;7.88;;;7.15;;
13832;SDS011;6987;19.472;-99.276;2023-09-18T06:36:09;8.75;;;8.00;;
13832;SDS011;6987;19.472;-99.276;2023-09-18T06:38:39;9.00;;;8.20;;
13832;SDS011;6987;19.472;-99.276;2023-09-18T06:41:10;8.68;;;7.97;;
13832;SDS011;6987;19.472;-99.276;2023-09-18T06:43:40;9.05;;;8.32;;
13832;SDS011;6987;19.472;-99.276;2023-09-18T06:46:10;9.38;;;8.40;;
13832;SDS011;6987;19.472;-99.276;2023-09-18T06:48:39;8.25;;;7.60;;
13832;SDS011;6987;19.472;-99.276;2023-09-18T06:51:11;8.10;;;7.28;;
13832;SDS011;6987;19.472;-99.276;2023-09-18T06:53:41;7.57;;;6.88;;
13832;SDS011;6987;19.472;-99.276;2023-09-18T06:56:13;7.45;;;6.70;;
13832;SDS011;6987;19.472;-99.276;2023-09-18T06:58:42;6.90;;;6.43;;
13832;SDS011;6987;19.472;-99.276;2023-09-18T07:01:13;7.90;;;7.30;;
13832;SDS011;6987;19.472;-99.276;2023-09-18T07:03:45;7.45;;;6.95;;
13832;SDS011;6987;19.472;-99.276;2023-09-18T07:06:14;8.82;;;6.22;;
13832;SDS011;6987;19.472;-99.276;2023-09-18T07:08:45;7.32;;;6.72;;
13832;SDS011;6987;19.472;-99.276;2023-09-18T07:11:17;7.63;;;7.03;;
13832;SDS011;6987;19.472;-99.276;2023-09-18T07:13:47;9.80;;;8.10;;
13832;SDS011;6987;19.472;-99.276;2023-09-18T07:16:17;8.10;;;7.40;;
13832;SDS011;6987;19.472;-99.276;2023-09-18T07:18:46;7.88;;;7.18;;
13832;SDS011;6987;19.472;-99.276;2023-09-18T07:21:15;9.30;;;7.47;;
13832;SDS011;6987;19.472;-99.276;2023-09-18T07:23:46;7.10;;;6.47;;
13832;SDS011;6987;19.472;-99.276;2023-09-18T07:26:17;7.30;;;6.70;;
13832;SDS011;6987;19.472;-99.276;2023-09-18T07:28:47;7.18;;;6.68;;
13832;SDS011;6987;19.472;-99.276;2023-09-18T07:31:16;7.95;;;7.25;;
13832;SDS011;6987;19.472;-99.276;2023-09-18T07:33:46;7.32;;;6.72;;
13832;SDS011;6987;19.472;-99.276;2023-09-18T07:36:17;7.78;;;7.07;;
13832;SDS011;6987;19.472;-99.276;2023-09-18T07:38:46;8.05;;;7.28;;
13832;SDS011;6987;19.472;-99.276;2023-09-18T07:41:18;8.18;;;7.47;;
13832;SDS011;6987;19.472;-99.276;2023-09-18T07:43:48;7.85;;;7.07;;
13832;SDS011;6987;19.472;-99.276;2023-09-18T07:46:17;8.57;;;7.28;;
13832;SDS011;6987;19.472;-99.276;2023-09-18T07:48:47;7.82;;;7.28;;
13832;SDS011;6987;19.472;-99.276;2023-09-18T07:51:16;8.98;;;8.27;;
13832;SDS011;6987;19.472;-99.276;2023-09-18T07:53:46;8.10;;;7.50;;
13832;SDS011;6987;19.472;-99.276;2023-09-18T07:56:15;8.32;;;7.60;;
13832;SDS011;6987;19.472;-99.276;2023-09-18T07:58:47;9.20;;;7.93;;
13832;SDS011;6987;19.472;-99.276;2023-09-18T08:01:16;8.38;;;7.68;;
13832;SDS011;6987;19.472;-99.276;2023-09-18T08:03:48;8.80;;;8.10;;
13832;SDS011;6987;19.472;-99.276;2023-09-18T08:06:17;8.65;;;7.72;;
13832;SDS011;6987;19.472;-99.276;2023-09-18T08:08:47;8.48;;;7.63;;
13832;SDS011;6987;19.472;-99.276;2023-09-18T08:11:18;8.55;;;7.75;;
13832;SDS011;6987;19.472;-99.276;2023-09-18T08:13:49;9.60;;;8.80;;
13832;SDS011;6987;19.472;-99.276;2023-09-18T08:16:19;8.30;;;7.70;;
13832;SDS011;6987;19.472;-99.276;2023-09-18T08:18:48;8.70;;;8.00;;
13832;SDS011;6987;19.472;-99.276;2023-09-18T08:21:18;9.52;;;8.65;;
13832;SDS011;6987;19.472;-99.276;2023-09-18T08:23:49;9.15;;;8.45;;
13832;SDS011;6987;19.472;-99.276;2023-09-18T08:26:20;8.43;;;7.72;;
13832;SDS011;6987;19.472;-99.276;2023-09-18T08:28:49;9.20;;;8.32;;
13832;SDS011;6987;19.472;-99.276;2023-09-18T08:31:18;8.55;;;7.80;;
13832;SDS011;6987;19.472;-99.276;2023-09-18T08:33:49;9.57;;;8.65;;
13832;SDS011;6987;19.472;-99.276;2023-09-18T08:36:19;8.38;;;7.75;;
13832;SDS011;6987;19.472;-99.276;2023-09-18T08:38:49;9.13;;;7.72;;
13832;SDS011;6987;19.472;-99.276;2023-09-18T08:41:21;8.25;;;7.45;;
13832;SDS011;6987;19.472;-99.276;2023-09-18T08:43:53;12.57;;;8.52;;
13832;SDS011;6987;19.472;-99.276;2023-09-18T08:46:29;8.63;;;7.82;;
13832;SDS011;6987;19.472;-99.276;2023-09-18T08:49:00;9.48;;;8.55;;
13832;SDS011;6987;19.472;-99.276;2023-09-18T08:51:30;10.23;;;7.88;;
13832;SDS011;6987;19.472;-99.276;2023-09-18T08:54:01;8.73;;;7.95;;
13832;SDS011;6987;19.472;-99.276;2023-09-18T08:56:34;9.13;;;8.38;;
13832;SDS011;6987;19.472;-99.276;2023-09-18T08:59:04;9.48;;;8.57;;
13832;SDS011;6987;19.472;-99.276;2023-09-18T09:06:45;8.98;;;8.18;;
13832;SDS011;6987;19.472;-99.276;2023-09-18T09:09:14;9.88;;;8.23;;
13832;SDS011;6987;19.472;-99.276;2023-09-18T09:11:50;11.27;;;8.18;;
13832;SDS011;6987;19.472;-99.276;2023-09-18T09:14:20;9.98;;;8.10;;
13832;SDS011;6987;19.472;-99.276;2023-09-18T09:16:54;9.52;;;8.45;;
13832;SDS011;6987;19.472;-99.276;2023-09-18T09:19:30;8.80;;;7.80;;
13832;SDS011;6987;19.472;-99.276;2023-09-18T09:22:02;11.85;;;8.27;;
13832;SDS011;6987;19.472;-99.276;2023-09-18T09:24:36;9.00;;;8.25;;
13832;SDS011;6987;19.472;-99.276;2023-09-18T09:27:10;9.93;;;8.93;;
13832;SDS011;6987;19.472;-99.276;2023-09-18T09:29:40;12.90;;;8.15;;
13832;SDS011;6987;19.472;-99.276;2023-09-18T09:32:13;9.73;;;8.82;;
13832;SDS011;6987;19.472;-99.276;2023-09-18T09:34:44;9.02;;;8.20;;
13832;SDS011;6987;19.472;-99.276;2023-09-18T09:37:13;8.98;;;8.00;;
13832;SDS011;6987;19.472;-99.276;2023-09-18T09:39:46;9.65;;;8.65;;
13832;SDS011;6987;19.472;-99.276;2023-09-18T09:42:19;9.45;;;8.55;;
13832;SDS011;6987;19.472;-99.276;2023-09-18T09:45:00;9.95;;;9.07;;
13832;SDS011;6987;19.472;-99.276;2023-09-18T09:47:32;11.38;;;8.65;;
13832;SDS011;6987;19.472;-99.276;2023-09-18T09:50:08;11.30;;;8.10;;
13832;SDS011;6987;19.472;-99.276;2023-09-18T09:52:42;13.85;;;8.73;;
13832;SDS011;6987;19.472;-99.276;2023-09-18T09:55:20;9.25;;;8.43;;
13832;SDS011;6987;19.472;-99.276;2023-09-18T09:57:54;9.82;;;8.90;;
13832;SDS011;6987;19.472;-99.276;2023-09-18T10:00:29;9.38;;;8.48;;
13832;SDS011;6987;19.472;-99.276;2023-09-18T10:03:09;9.68;;;8.88;;
13832;SDS011;6987;19.472;-99.276;2023-09-18T10:05:40;9.95;;;9.10;;
13832;SDS011;6987;19.472;-99.276;2023-09-18T10:08:11;9.70;;;8.82;;
13832;SDS011;6987;19.472;-99.276;2023-09-18T10:10:43;10.27;;;9.40;;
13832;SDS011;6987;19.472;-99.276;2023-09-18T10:13:16;9.57;;;8.68;;
13832;SDS011;6987;19.472;-99.276;2023-09-18T10:15:48;9.82;;;8.82;;
13832;SDS011;6987;19.472;-99.276;2023-09-18T10:18:22;10.40;;;9.27;;
13832;SDS011;6987;19.472;-99.276;2023-09-18T10:20:56;10.38;;;9.15;;
13832;SDS011;6987;19.472;-99.276;2023-09-18T10:23:34;11.23;;;9.20;;
13832;SDS011;6987;19.472;-99.276;2023-09-18T10:26:14;9.55;;;8.68;;
13832;SDS011;6987;19.472;-99.276;2023-09-18T10:28:56;9.60;;;8.68;;
13832;SDS011;6987;19.472;-99.276;2023-09-18T10:31:29;9.80;;;8.82;;
13832;SDS011;6987;19.472;-99.276;2023-09-18T10:34:00;9.73;;;8.88;;
13832;SDS011;6987;19.472;-99.276;2023-09-18T10:36:31;11.48;;;9.18;;
13832;SDS011;6987;19.472;-99.276;2023-09-18T10:39:03;9.80;;;8.90;;
13832;SDS011;6987;19.472;-99.276;2023-09-18T10:41:36;9.20;;;8.35;;
13832;SDS011;6987;19.472;-99.276;2023-09-18T10:44:07;9.60;;;8.70;;
13832;SDS011;6987;19.472;-99.276;2023-09-18T10:46:38;9.70;;;8.73;;
13832;SDS011;6987;19.472;-99.276;2023-09-18T10:49:07;13.63;;;9.45;;
13832;SDS011;6987;19.472;-99.276;2023-09-18T10:51:37;9.80;;;8.85;;
13832;SDS011;6987;19.472;-99.276;2023-09-18T10:54:08;9.80;;;8.93;;
13832;SDS011;6987;19.472;-99.276;2023-09-18T10:56:38;10.05;;;9.05;;
13832;SDS011;6987;19.472;-99.276;2023-09-18T10:59:10;10.50;;;9.48;;
13832;SDS011;6987;19.472;-99.276;2023-09-18T11:01:39;10.50;;;9.50;;
13832;SDS011;6987;19.472;-99.276;2023-09-18T11:04:09;9.15;;;8.40;;
13832;SDS011;6987;19.472;-99.276;2023-09-18T11:07:01;11.75;;;9.75;;
13832;SDS011;6987;19.472;-99.276;2023-09-18T11:09:40;11.45;;;9.25;;
13832;SDS011;6987;19.472;-99.276;2023-09-18T11:12:10;11.07;;;8.88;;
13832;SDS011;6987;19.472;-99.276;2023-09-18T11:14:47;10.18;;;9.27;;
13832;SDS011;6987;19.472;-99.276;2023-09-18T11:17:34;9.65;;;8.68;;
13832;SDS011;6987;19.472;-99.276;2023-09-18T11:20:05;10.10;;;8.70;;
13832;SDS011;6987;19.472;-99.276;2023-09-18T11:22:46;8.95;;;8.25;;
13832;SDS011;6987;19.472;-99.276;2023-09-18T11:25:29;10.05;;;8.88;;
13832;SDS011;6987;19.472;-99.276;2023-09-18T11:28:03;11.60;;;9.43;;
13832;SDS011;6987;19.472;-99.276;2023-09-18T11:30:36;10.18;;;9.02;;
13832;SDS011;6987;19.472;-99.276;2023-09-18T11:33:07;9.68;;;8.77;;
13832;SDS011;6987;19.472;-99.276;2023-09-18T11:35:37;9.68;;;8.77;;
13832;SDS011;6987;19.472;-99.276;2023-09-18T11:38:18;9.85;;;8.85;;
13832;SDS011;6987;19.472;-99.276;2023-09-18T11:40:49;10.38;;;9.32;;
13832;SDS011;6987;19.472;-99.276;2023-09-18T11:43:19;10.05;;;9.13;;
13832;SDS011;6987;19.472;-99.276;2023-09-18T11:45:57;9.82;;;8.93;;
13832;SDS011;6987;19.472;-99.276;2023-09-18T11:48:27;9.93;;;9.02;;
13832;SDS011;6987;19.472;-99.276;2023-09-18T11:51:01;10.48;;;9.32;;
13832;SDS011;6987;19.472;-99.276;2023-09-18T11:53:33;11.07;;;8.85;;
13832;SDS011;6987;19.472;-99.276;2023-09-18T11:56:10;10.10;;;9.13;;
13832;SDS011;6987;19.472;-99.276;2023-09-18T11:58:46;11.10;;;9.10;;
13832;SDS011;6987;19.472;-99.276;2023-09-18T12:01:18;11.68;;;9.02;;
13832;SDS011;6987;19.472;-99.276;2023-09-18T12:03:52;10.30;;;9.30;;
13832;SDS011;6987;19.472;-99.276;2023-09-18T12:06:23;11.77;;;10.68;;
13832;SDS011;6987;19.472;-99.276;2023-09-18T12:08:52;10.93;;;10.02;;
13832;SDS011;6987;19.472;-99.276;2023-09-18T12:11:22;11.57;;;10.30;;
13832;SDS011;6987;19.472;-99.276;2023-09-18T12:13:51;10.10;;;9.13;;
13832;SDS011;6987;19.472;-99.276;2023-09-18T12:16:23;10.13;;;9.10;;
13832;SDS011;6987;19.472;-99.276;2023-09-18T12:18:53;12.27;;;10.63;;
13832;SDS011;6987;19.472;-99.276;2023-09-18T12:21:23;10.52;;;9.55;;
13832;SDS011;6987;19.472;-99.276;2023-09-18T12:23:52;11.65;;;10.63;;
13832;SDS011;6987;19.472;-99.276;2023-09-18T12:26:22;11.80;;;10.05;;
13832;SDS011;6987;19.472;-99.276;2023-09-18T12:28:51;11.25;;;9.98;;
13832;SDS011;6987;19.472;-99.276;2023-09-18T12:31:22;11.52;;;10.43;;
13832;SDS011;6987;19.472;-99.276;2023-09-18T12:33:52;11.65;;;10.45;;
13832;SDS011;6987;19.472;-99.276;2023-09-18T12:36:22;10.98;;;9.88;;
13832;SDS011;6987;19.472;-99.276;2023-09-18T12:38:55;10.60;;;9.57;;
13832;SDS011;6987;19.472;-99.276;2023-09-18T12:41:26;11.50;;;10.40;;
13832;SDS011;6987;19.472;-99.276;2023-09-18T12:43:56;10.48;;;9.48;;
13832;SDS011;6987;19.472;-99.276;2023-09-18T12:46:27;12.40;;;10.45;;
13832;SDS011;6987;19.472;-99.276;2023-09-18T12:48:59;11.93;;;10.48;;
13832;SDS011;6987;19.472;-99.276;2023-09-18T12:51:44;10.75;;;9.75;;
13832;SDS011;6987;19.472;-99.276;2023-09-18T12:54:22;10.95;;;9.88;;
13832;SDS011;6987;19.472;-99.276;2023-09-18T12:57:09;10.13;;;9.20;;
13832;SDS011;6987;19.472;-99.276;2023-09-18T12:59:39;11.23;;;10.13;;
13832;SDS011;6987;19.472;-99.276;2023-09-18T13:02:12;10.93;;;9.85;;
13832;SDS011;6987;19.472;-99.276;2023-09-18T13:04:41;11.70;;;9.65;;
13832;SDS011;6987;19.472;-99.276;2023-09-18T13:07:20;11.18;;;10.07;;
13832;SDS011;6987;19.472;-99.276;2023-09-18T13:09:59;11.27;;;10.23;;
13832;SDS011;6987;19.472;-99.276;2023-09-18T13:12:39;10.85;;;9.75;;
13832;SDS011;6987;19.472;-99.276;2023-09-18T13:15:09;12.30;;;9.77;;
13832;SDS011;6987;19.472;-99.276;2023-09-18T13:17:41;12.20;;;10.25;;
13832;SDS011;6987;19.472;-99.276;2023-09-18T13:20:13;11.30;;;10.30;;
13832;SDS011;6987;19.472;-99.276;2023-09-18T13:22:47;15.18;;;10.65;;
13832;SDS011;6987;19.472;-99.276;2023-09-18T13:25:21;11.82;;;10.35;;
13832;SDS011;6987;19.472;-99.276;2023-09-18T13:27:51;13.98;;;10.55;;
13832;SDS011;6987;19.472;-99.276;2023-09-18T13:30:22;14.02;;;10.27;;
13832;SDS011;6987;19.472;-99.276;2023-09-18T13:33:00;13.45;;;10.40;;
13832;SDS011;6987;19.472;-99.276;2023-09-18T13:35:31;12.52;;;11.27;;
13832;SDS011;6987;19.472;-99.276;2023-09-18T13:38:01;12.75;;;11.45;;
13832;SDS011;6987;19.472;-99.276;2023-09-18T13:40:32;12.80;;;11.15;;
13832;SDS011;6987;19.472;-99.276;2023-09-18T13:43:01;13.63;;;11.43;;
13832;SDS011;6987;19.472;-99.276;2023-09-18T13:45:31;13.38;;;10.10;;
13832;SDS011;6987;19.472;-99.276;2023-09-18T13:48:05;12.68;;;9.80;;
13832;SDS011;6987;19.472;-99.276;2023-09-18T13:50:36;12.75;;;10.80;;
13832;SDS011;6987;19.472;-99.276;2023-09-18T13:53:05;16.40;;;10.73;;
13832;SDS011;6987;19.472;-99.276;2023-09-18T13:55:34;13.43;;;11.73;;
13832;SDS011;6987;19.472;-99.276;2023-09-18T13:58:04;17.92;;;12.35;;
13832;SDS011;6987;19.472;-99.276;2023-09-18T14:00:34;14.18;;;12.75;;
13832;SDS011;6987;19.472;-99.276;2023-09-18T14:03:05;15.40;;;12.90;;
13832;SDS011;6987;19.472;-99.276;2023-09-18T14:05:34;16.52;;;13.25;;
13832;SDS011;6987;19.472;-99.276;2023-09-18T14:08:04;15.10;;;13.57;;
13832;SDS011;6987;19.472;-99.276;2023-09-18T14:10:34;18.00;;;13.68;;
13832;SDS011;6987;19.472;-99.276;2023-09-18T14:13:05;15.60;;;12.32;;
13832;SDS011;6987;19.472;-99.276;2023-09-18T14:15:34;14.40;;;12.63;;
13832;SDS011;6987;19.472;-99.276;2023-09-18T14:18:06;14.07;;;12.65;;
13832;SDS011;6987;19.472;-99.276;2023-09-18T14:20:36;13.88;;;12.35;;
13832;SDS011;6987;19.472;-99.276;2023-09-18T14:23:06;15.32;;;11.85;;
13832;SDS011;6987;19.472;-99.276;2023-09-18T14:25:36;13.60;;;12.20;;
13832;SDS011;6987;19.472;-99.276;2023-09-18T14:28:07;12.55;;;11.23;;
13832;SDS011;6987;19.472;-99.276;2023-09-18T14:30:36;12.70;;;11.38;;
13832;SDS011;6987;19.472;-99.276;2023-09-18T14:33:07;12.80;;;11.48;;
13832;SDS011;6987;19.472;-99.276;2023-09-18T14:35:36;15.15;;;12.02;;
13832;SDS011;6987;19.472;-99.276;2023-09-18T14:38:06;13.50;;;12.10;;
13832;SDS011;6987;19.472;-99.276;2023-09-18T14:40:35;14.50;;;12.50;;
13832;SDS011;6987;19.472;-99.276;2023-09-18T14:43:08;17.27;;;12.75;;
13832;SDS011;6987;19.472;-99.276;2023-09-18T14:45:38;14.45;;;12.75;;